Startpagina
METAR-TAF:

METAR-TAF

Vliegvelden :

Internationale Luchthaven Oostende-Brugge

Oostende, België

breedte: 51-12N, lengte: 002-52E, hoogte: 4 m

Actueel weer

Dit bericht is 10 minuten geleden gemaakt, om 17:50 UTC
Wind 6 kt uit het zuidzuidwesten
Temperatuur 11°C
Vochtigheid 76%
Druk 1029 hPa
Zicht 10 km of meer
Weinig wolken op 4000 ft

METAR: EBOS 061750Z 20006KT 9999 FEW040 11/07 Q1029 NOSIG

Tijdstip: 20:00 (18:00 UTC)

Verwachting

Dit bericht is 58 minuten geleden gemaakt, om 17:02 UTC
Verwachting geldig van 06 om 18 UTC tot 07 om 24 UTC
Wind 6 kt uit het zuiden
Zicht 10 km of meer
Verspreide wolken op 2500 ft
Wijzigt naar
van 07 om 09 UTC tot 07 om 12 UTC
Wind 10 kt uit het westzuidwesten
Kans 30% :
Tijdelijke
van 07 om 21 UTC tot 07 om 24 UTC
Wind 15 kt uit het zuidwesten met uitschieters tot 25 kt
Gebroken wolken op 1400 ft
regen, regenbuien

TAF: EBOS 061702Z 0618/0724 18006KT 9999 SCT025 BECMG 0709/0712 24010KT PROB30 TEMPO 0721/0724 23015G25KT RA SHRA BKN014

Waarnemingen en weersverwachtingen van meer dan 4000 vliegvelden (METAR en TAF).

De beschikbare stations zijn de gele en rode punten op de kaart.

Ga met uw muis naar het station om de naam te zien.

Klik dan om waarnemingen en weersverwachtingen te zien.

kaart wijzigen: klik op de groene knoppen met een zwart kruis om in te zoomen, op de groene knop met een streepje om uit te zoomen of op de groene pijlen voor aangrenzende kaarten.


METAR-TAF: